Time;durP1;ratioP1;P1;durP2;ratioP2;P2;SDS_P1;SDS_P2;PMS_P1;PMS_P2;Temp;Humidity;BMP_temperature;BMP_pressure;BME280_temperature;BME280_humidity;BME280_pressure;Samples;Min_cycle;Max_cycle;Signal;HPM_P1;HPM_P2
2022/01/29 00:01:53;;;;;;;;;;;6.70;99.90;;;;;;5053752;28;19975;-74
2022/01/29 00:04:19;;;;;;;;;;;6.70;99.90;;;;;;5053420;28;19921;-74
2022/01/29 00:06:45;;;;;;;;;;;6.70;99.90;;;;;;5053389;28;19921;-74
2022/01/29 00:09:14;;;;;;;;;;;6.70;99.90;;;;;;5053221;28;19960;-74
2022/01/29 00:11:40;;;;;;;;;;;6.60;99.90;;;;;;5053489;28;19943;-73
2022/01/29 00:14:06;;;;;;;;;;;6.70;99.90;;;;;;5036012;28;19928;-73
2022/01/29 00:16:32;;;;;;;;;;;6.70;99.90;;;;;;5053461;28;19986;-73
2022/01/29 00:18:57;;;;;;;;;;;6.70;99.90;;;;;;5052965;28;20448;-74
2022/01/29 00:21:22;;;;;;;;;;;6.60;99.90;;;;;;5053522;28;19928;-74
2022/01/29 00:23:48;;;;;;;;;;;6.60;99.90;;;;;;5052625;28;20471;-73
2022/01/29 00:26:14;;;;;;;;;;;6.60;99.90;;;;;;5052380;28;19921;-74
2022/01/29 00:28:39;;;;;;;;;;;6.70;99.90;;;;;;5053982;28;20291;-73
2022/01/29 00:31:05;;;;;;;;;;;6.60;99.90;;;;;;5052728;28;20409;-73
2022/01/29 00:33:31;;;;;;;;;;;6.60;99.90;;;;;;5053281;28;19920;-74
2022/01/29 00:35:56;;;;;;;;;;;6.60;99.90;;;;;;5053647;28;19928;-74
2022/01/29 00:38:22;;;;;;;;;;;6.60;99.90;;;;;;5051697;28;19990;-73
2022/01/29 00:40:47;;;;;;;;;;;6.60;99.90;;;;;;5038593;28;20398;-73
2022/01/29 00:43:13;;;;;;;;;;;6.60;99.90;;;;;;5035858;28;19921;-74
2022/01/29 00:45:38;;;;;;;;;;;6.60;99.90;;;;;;5052682;28;19927;-74
2022/01/29 00:48:04;;;;;;;;;;;6.50;99.90;;;;;;5035992;28;19920;-74
2022/01/29 00:50:29;;;;;;;;;;;6.50;99.90;;;;;;5052921;28;19932;-73
2022/01/29 00:52:55;;;;;;;;;;;6.50;99.90;;;;;;5052553;28;20387;-73
2022/01/29 00:55:20;;;;;;;;;;;6.40;99.90;;;;;;5035871;28;20329;-73
2022/01/29 00:57:46;;;;;;;;;;;6.40;99.90;;;;;;5052077;28;19921;-73
2022/01/29 01:00:13;;;;;;;;;;;6.40;99.90;;;;;;5052432;28;19944;-72
2022/01/29 01:02:39;;;;;;;;;;;6.40;99.90;;;;;;5052324;28;20410;-73
2022/01/29 01:05:05;;;;;;;;;;;6.40;99.90;;;;;;5035571;28;19921;-74
2022/01/29 01:07:30;;;;;;;;;;;6.40;99.90;;;;;;5035476;28;19946;-73
2022/01/29 01:09:56;;;;;;;;;;;6.40;99.90;;;;;;5052582;28;19925;-73
2022/01/29 01:12:22;;;;;;;;;;;6.50;99.90;;;;;;5035376;28;19921;-73
2022/01/29 01:14:47;;;;;;;;;;;6.40;99.90;;;;;;5052112;28;19921;-73
2022/01/29 01:17:13;;;;;;;;;;;6.40;99.90;;;;;;5051864;28;20350;-73
2022/01/29 01:19:38;;;;;;;;;;;6.40;99.90;;;;;;5051900;28;19943;-73
2022/01/29 01:22:04;;;;;;;;;;;6.40;99.90;;;;;;5068387;28;20326;-73
2022/01/29 01:24:29;;;;;;;;;;;6.40;99.90;;;;;;5052561;28;19927;-73
2022/01/29 01:26:55;;;;;;;;;;;6.40;99.90;;;;;;5051817;28;19925;-73
2022/01/29 01:29:21;;;;;;;;;;;6.40;99.90;;;;;;5053958;28;19932;-73
2022/01/29 01:31:46;;;;;;;;;;;6.40;99.90;;;;;;5052249;28;19924;-73
2022/01/29 01:34:13;;;;;;;;;;;6.40;99.90;;;;;;5052150;28;19921;-73
2022/01/29 01:36:45;;;;;;;;;;;6.40;99.90;;;;;;5051890;28;19928;-74
2022/01/29 01:39:14;;;;;;;;;;;6.40;99.90;;;;;;5035198;28;19971;-73
2022/01/29 01:41:42;;;;;;;;;;;6.40;99.90;;;;;;5052997;28;19943;-74
2022/01/29 01:44:12;;;;;;;;;;;6.40;99.90;;;;;;5052523;28;19927;-73
2022/01/29 01:46:38;;;;;;;;;;;6.40;99.90;;;;;;5053024;28;19921;-74
2022/01/29 01:49:03;;;;;;;;;;;6.50;99.90;;;;;;5051559;28;19928;-74
2022/01/29 01:51:29;;;;;;;;;;;6.40;99.90;;;;;;5051852;28;20019;-74
2022/01/29 01:53:55;;;;;;;;;;;6.40;99.90;;;;;;5052853;28;20330;-74
2022/01/29 01:56:20;;;;;;;;;;;6.40;99.90;;;;;;5053017;28;19928;-74
2022/01/29 01:58:46;;;;;;;;;;;6.40;99.90;;;;;;5052574;28;19921;-74
2022/01/29 02:01:12;;;;;;;;;;;6.50;99.90;;;;;;5052863;28;19921;-73
2022/01/29 02:03:37;;;;;;;;;;;6.40;99.90;;;;;;5051179;28;19921;-74
2022/01/29 02:06:03;;;;;;;;;;;6.40;99.90;;;;;;5035388;28;19971;-74
2022/01/29 02:08:28;;;;;;;;;;;6.40;99.90;;;;;;5051252;28;19928;-74
2022/01/29 02:11:00;;;;;;;;;;;6.50;99.90;;;;;;5050880;28;19925;-74
2022/01/29 02:13:28;;;;;;;;;;;6.50;99.90;;;;;;5051102;28;19971;-73
2022/01/29 02:15:55;;;;;;;;;;;6.50;99.90;;;;;;5051743;28;19921;-74
2022/01/29 02:18:20;;;;;;;;;;;6.50;99.90;;;;;;5051082;28;19920;-74
2022/01/29 02:20:46;;;;;;;;;;;6.50;99.90;;;;;;5051267;28;19947;-74
2022/01/29 02:23:11;;;;;;;;;;;6.40;99.90;;;;;;5051098;28;19921;-74
2022/01/29 02:25:44;;;;;;;;;;;6.50;99.90;;;;;;5034780;28;19975;-74
2022/01/29 02:28:15;;;;;;;;;;;6.50;99.90;;;;;;5051405;28;20351;-74
2022/01/29 02:30:42;;;;;;;;;;;6.50;99.90;;;;;;5034548;28;19925;-74
2022/01/29 02:33:11;;;;;;;;;;;6.50;99.90;;;;;;5052094;28;19921;-74
2022/01/29 02:35:37;;;;;;;;;;;6.50;99.90;;;;;;5055474;28;19928;-74
2022/01/29 02:38:03;;;;;;;;;;;6.50;99.90;;;;;;5056542;28;19921;-73
2022/01/29 02:40:34;;;;;;;;;;;6.50;99.90;;;;;;5055041;28;19921;-73
2022/01/29 02:43:08;;;;;;;;;;;6.50;99.90;;;;;;5054634;28;19920;-74
2022/01/29 02:45:34;;;;;;;;;;;6.60;99.90;;;;;;5055219;28;19931;-74
2022/01/29 02:47:59;;;;;;;;;;;6.60;99.90;;;;;;5054650;28;20059;-74
2022/01/29 02:50:25;;;;;;;;;;;6.70;99.90;;;;;;5054987;28;19970;-73
2022/01/29 02:52:50;;;;;;;;;;;6.60;99.90;;;;;;5055302;28;19928;-73
2022/01/29 02:55:16;;;;;;;;;;;6.60;99.90;;;;;;5054975;28;20342;-73
2022/01/29 02:57:41;;;;;;;;;;;6.60;99.90;;;;;;5071074;28;19928;-74
2022/01/29 03:00:10;;;;;;;;;;;6.60;99.90;;;;;;5037984;28;19925;-73
2022/01/29 03:02:36;;;;;;;;;;;6.60;99.90;;;;;;5054671;28;19925;-74
2022/01/29 03:05:02;;;;;;;;;;;6.60;99.90;;;;;;5037369;28;19928;-73
2022/01/29 03:07:27;;;;;;;;;;;6.70;99.90;;;;;;5037536;28;19928;-73
2022/01/29 03:09:53;;;;;;;;;;;6.70;99.90;;;;;;5053802;28;20290;-73
2022/01/29 03:12:18;;;;;;;;;;;6.70;99.90;;;;;;5055427;28;19999;-73
2022/01/29 03:14:44;;;;;;;;;;;6.70;99.90;;;;;;5054041;28;19928;-73
2022/01/29 03:17:10;;;;;;;;;;;6.70;99.90;;;;;;5054375;28;20494;-74
2022/01/29 03:19:35;;;;;;;;;;;6.80;99.90;;;;;;5053585;28;19931;-74
2022/01/29 03:22:01;;;;;;;;;;;6.80;99.90;;;;;;5055543;28;19970;-74
2022/01/29 03:24:27;;;;;;;;;;;6.80;99.90;;;;;;5053871;28;19927;-74
2022/01/29 03:26:52;;;;;;;;;;;6.90;99.90;;;;;;5053969;28;19921;-74
2022/01/29 03:29:18;;;;;;;;;;;7.00;99.90;;;;;;5055060;28;19928;-73
2022/01/29 03:31:43;;;;;;;;;;;6.90;99.90;;;;;;5053755;28;19928;-73
2022/01/29 03:34:08;;;;;;;;;;;7.00;99.90;;;;;;5054196;28;19927;-73
2022/01/29 03:36:34;;;;;;;;;;;7.10;99.90;;;;;;5054856;28;19974;-73
2022/01/29 03:39:01;;;;;;;;;;;7.10;99.90;;;;;;5055551;28;19928;-72
2022/01/29 03:41:26;;;;;;;;;;;7.10;99.90;;;;;;5037117;28;19967;-73
2022/01/29 03:43:54;;;;;;;;;;;7.20;99.90;;;;;;5052927;28;20417;-73
2022/01/29 03:46:20;;;;;;;;;;;7.20;99.90;;;;;;5053262;28;19929;-73
2022/01/29 03:48:45;;;;;;;;;;;7.30;99.90;;;;;;5036335;28;19929;-73
2022/01/29 03:51:11;;;;;;;;;;;7.30;99.90;;;;;;5036582;28;20091;-73
2022/01/29 03:53:36;;;;;;;;;;;7.30;99.90;;;;;;5036472;28;20325;-73
2022/01/29 03:56:02;;;;;;;;;;;7.30;99.90;;;;;;5053431;28;19920;-73
2022/01/29 03:58:27;;;;;;;;;;;7.40;99.90;;;;;;5053042;28;19921;-73
2022/01/29 04:00:53;;;;;;;;;;;7.40;99.90;;;;;;5036532;28;19986;-73
2022/01/29 04:03:18;;;;;;;;;;;7.40;99.90;;;;;;5053028;28;20290;-73
2022/01/29 04:05:44;;;;;;;;;;;7.40;99.90;;;;;;5054084;28;19928;-73
2022/01/29 04:08:17;;;;;;;;;;;7.50;99.90;;;;;;5052555;28;19924;-73
2022/01/29 04:10:43;;;;;;;;;;;7.50;99.90;;;;;;5053025;28;19924;-73
2022/01/29 04:13:11;;;;;;;;;;;7.50;99.90;;;;;;5054087;28;20398;-73
2022/01/29 04:15:36;;;;;;;;;;;7.50;99.90;;;;;;5052677;28;19956;-73
2022/01/29 04:18:02;;;;;;;;;;;7.50;99.90;;;;;;5053419;28;20358;-73
2022/01/29 04:20:28;;;;;;;;;;;7.50;99.90;;;;;;5036063;28;19921;-73
2022/01/29 04:22:53;;;;;;;;;;;7.60;99.90;;;;;;5036107;28;20011;-73
2022/01/29 04:25:19;;;;;;;;;;;7.60;99.90;;;;;;5035976;28;19967;-73
2022/01/29 04:27:47;;;;;;;;;;;7.60;99.90;;;;;;5052766;28;19936;-73
2022/01/29 04:30:25;;;;;;;;;;;7.60;99.90;;;;;;5035484;28;20012;-73
2022/01/29 04:35:16;;;;;;;;;;;7.60;99.90;;;;;;5054260;28;19920;-74
2022/01/29 04:37:41;;;;;;;;;;;7.70;99.90;;;;;;5054631;28;19920;-74
2022/01/29 04:40:07;;;;;;;;;;;7.70;99.90;;;;;;5037802;28;19925;-74
2022/01/29 04:42:33;;;;;;;;;;;7.70;99.90;;;;;;5056535;28;19924;-73
2022/01/29 04:44:58;;;;;;;;;;;7.80;99.90;;;;;;5052507;28;19927;-73
2022/01/29 04:47:24;;;;;;;;;;;7.70;99.90;;;;;;5036480;28;19929;-73
2022/01/29 04:49:50;;;;;;;;;;;7.70;99.90;;;;;;5036165;28;20287;-72
2022/01/29 04:52:15;;;;;;;;;;;7.70;99.90;;;;;;5052627;28;20302;-72
2022/01/29 04:54:41;;;;;;;;;;;7.70;99.90;;;;;;5052413;28;19925;-72
2022/01/29 04:57:06;;;;;;;;;;;7.70;99.90;;;;;;5052637;28;19990;-73
2022/01/29 04:59:32;;;;;;;;;;;7.70;99.90;;;;;;5035635;28;19920;-74
2022/01/29 05:01:57;;;;;;;;;;;7.80;99.90;;;;;;5035790;28;19928;-73
2022/01/29 05:04:23;;;;;;;;;;;7.80;99.90;;;;;;5052239;28;20015;-72
2022/01/29 05:06:48;;;;;;;;;;;7.80;99.90;;;;;;5051989;28;20417;-73
2022/01/29 05:09:14;;;;;;;;;;;7.80;99.90;;;;;;5035299;28;19970;-73
2022/01/29 05:11:43;;;;;;;;;;;7.80;99.90;;;;;;5035487;28;19967;-72
2022/01/29 05:14:16;;;;;;;;;;;7.80;99.90;;;;;;5035236;28;20382;-73
2022/01/29 05:27:32;;;;;;;;;;;7.90;99.90;;;;;;5051640;28;19924;-73
2022/01/29 05:29:57;;;;;;;;;;;8.00;99.90;;;;;;5035342;28;19925;-73
2022/01/29 05:32:25;;;;;;;;;;;8.00;99.90;;;;;;5032965;28;19929;-74
2022/01/29 05:34:51;;;;;;;;;;;8.00;99.90;;;;;;5048334;28;19967;-74
2022/01/29 05:37:16;;;;;;;;;;;8.10;99.90;;;;;;5048604;28;20299;-74
2022/01/29 05:39:42;;;;;;;;;;;8.00;99.90;;;;;;5046820;28;19920;-74
2022/01/29 05:42:08;;;;;;;;;;;8.00;99.90;;;;;;5034865;28;20070;-74
2022/01/29 05:44:33;;;;;;;;;;;8.10;99.90;;;;;;5051891;28;19920;-74
2022/01/29 05:46:58;;;;;;;;;;;8.10;99.90;;;;;;5035198;28;20383;-73
2022/01/29 05:49:24;;;;;;;;;;;8.10;99.90;;;;;;5051815;28;19964;-74
2022/01/29 05:51:49;;;;;;;;;;;8.10;99.90;;;;;;5051132;28;19927;-74
2022/01/29 05:54:15;;;;;;;;;;;8.10;99.90;;;;;;5034020;28;20306;-73
2022/01/29 05:56:41;;;;;;;;;;;8.10;99.90;;;;;;5051674;28;20012;-74
2022/01/29 05:59:06;;;;;;;;;;;8.10;99.90;;;;;;5034604;28;19920;-74
2022/01/29 06:01:32;;;;;;;;;;;8.10;99.90;;;;;;5051440;28;20011;-74
2022/01/29 06:03:57;;;;;;;;;;;8.10;99.90;;;;;;5051161;28;20031;-74
2022/01/29 06:06:26;;;;;;;;;;;8.10;99.90;;;;;;5062115;28;20255;-74
2022/01/29 06:08:51;;;;;;;;;;;8.10;99.90;;;;;;5051439;28;20023;-74
2022/01/29 06:11:17;;;;;;;;;;;8.20;99.90;;;;;;5034920;28;19931;-74
2022/01/29 06:13:43;;;;;;;;;;;8.10;99.90;;;;;;5050805;28;19921;-74
2022/01/29 06:16:09;;;;;;;;;;;8.10;99.90;;;;;;5035055;28;19990;-74
2022/01/29 06:18:34;;;;;;;;;;;8.10;99.90;;;;;;5034678;28;20015;-74
2022/01/29 06:21:04;;;;;;;;;;;8.10;99.90;;;;;;5034052;28;20387;-73
2022/01/29 06:23:32;;;;;;;;;;;8.10;99.90;;;;;;5051251;28;19921;-74
2022/01/29 06:25:59;;;;;;;;;;;8.10;99.90;;;;;;5051260;28;19928;-74
2022/01/29 06:28:24;;;;;;;;;;;8.20;99.90;;;;;;5034379;28;20446;-74
2022/01/29 06:30:50;;;;;;;;;;;8.10;99.90;;;;;;5034191;28;20005;-74
2022/01/29 06:33:15;;;;;;;;;;;8.20;99.90;;;;;;5034357;28;19966;-74
2022/01/29 06:35:43;;;;;;;;;;;8.10;99.90;;;;;;5034229;28;19921;-74
2022/01/29 06:38:09;;;;;;;;;;;8.20;99.90;;;;;;5034435;28;20383;-74
2022/01/29 06:40:35;;;;;;;;;;;8.20;99.90;;;;;;5034207;28;19921;-73
2022/01/29 06:43:04;;;;;;;;;;;8.20;99.90;;;;;;5034040;28;19952;-74
2022/01/29 06:45:30;;;;;;;;;;;8.20;99.90;;;;;;5034307;28;19928;-74
2022/01/29 06:47:55;;;;;;;;;;;8.20;99.90;;;;;;5051042;28;19955;-74
2022/01/29 06:50:21;;;;;;;;;;;8.20;99.90;;;;;;5034326;28;21274;-74
2022/01/29 06:52:47;;;;;;;;;;;8.20;99.90;;;;;;5051067;28;20367;-73
2022/01/29 06:55:12;;;;;;;;;;;8.20;99.90;;;;;;5034413;28;19920;-74
2022/01/29 06:57:38;;;;;;;;;;;8.30;99.90;;;;;;5034221;28;19975;-74
2022/01/29 07:00:07;;;;;;;;;;;8.30;99.90;;;;;;5034346;28;19920;-73
2022/01/29 07:02:32;;;;;;;;;;;8.30;99.90;;;;;;5034014;28;19921;-74
2022/01/29 07:04:58;;;;;;;;;;;8.30;99.90;;;;;;5034322;28;19928;-74
2022/01/29 07:07:23;;;;;;;;;;;8.30;99.90;;;;;;5050926;28;20306;-74
2022/01/29 07:09:49;;;;;;;;;;;8.30;99.90;;;;;;5034024;28;19925;-74
2022/01/29 07:12:14;;;;;;;;;;;8.30;99.90;;;;;;5046135;28;20164;-73
2022/01/29 07:14:40;;;;;;;;;;;8.30;99.90;;;;;;5054946;28;19920;-74
2022/01/29 07:17:09;;;;;;;;;;;8.30;99.90;;;;;;5052584;28;19970;-74
2022/01/29 07:19:35;;;;;;;;;;;8.30;99.90;;;;;;5051141;28;19990;-74
2022/01/29 07:22:01;;;;;;;;;;;8.30;99.90;;;;;;5054303;28;20007;-74
2022/01/29 07:24:26;;;;;;;;;;;8.30;99.90;;;;;;5037728;28;19920;-72
2022/01/29 07:26:52;;;;;;;;;;;8.30;99.90;;;;;;5037051;28;19927;-73
2022/01/29 07:29:17;;;;;;;;;;;8.30;99.90;;;;;;5053140;28;19928;-73
2022/01/29 07:31:43;;;;;;;;;;;8.40;99.90;;;;;;5052057;28;20142;-75
2022/01/29 07:34:11;;;;;;;;;;;8.40;99.90;;;;;;5045560;28;19969;-75
2022/01/29 07:36:42;;;;;;;;;;;8.30;99.90;;;;;;5035819;28;19921;-75
2022/01/29 07:39:08;;;;;;;;;;;8.30;99.90;;;;;;5052855;28;19936;-75
2022/01/29 07:41:33;;;;;;;;;;;8.40;99.90;;;;;;5036737;28;19921;-74
2022/01/29 07:43:59;;;;;;;;;;;8.40;99.90;;;;;;5036336;28;19956;-74
2022/01/29 07:46:24;;;;;;;;;;;8.40;99.90;;;;;;5047753;28;19924;-73
2022/01/29 07:48:50;;;;;;;;;;;8.30;99.90;;;;;;5053460;28;19920;-73
2022/01/29 07:51:16;;;;;;;;;;;8.40;99.90;;;;;;5037150;28;19935;-74
2022/01/29 07:53:41;;;;;;;;;;;8.40;99.90;;;;;;5036468;28;19999;-73
2022/01/29 07:56:09;;;;;;;;;;;8.40;99.90;;;;;;5053317;28;19978;-73
2022/01/29 07:58:35;;;;;;;;;;;8.40;99.90;;;;;;5036296;28;19929;-73
2022/01/29 08:01:00;;;;;;;;;;;8.40;99.90;;;;;;5052917;28;20299;-73
2022/01/29 08:03:26;;;;;;;;;;;8.40;99.90;;;;;;5052736;28;19928;-73
2022/01/29 08:05:51;;;;;;;;;;;8.40;99.90;;;;;;5036878;28;19972;-73
2022/01/29 08:08:17;;;;;;;;;;;8.50;99.90;;;;;;5036210;28;19921;-73
2022/01/29 08:10:42;;;;;;;;;;;8.50;99.90;;;;;;5036255;28;19932;-73
2022/01/29 08:13:08;;;;;;;;;;;8.60;99.90;;;;;;5052052;28;19927;-76
2022/01/29 08:15:36;;;;;;;;;;;8.50;99.90;;;;;;5035860;28;19921;-75
2022/01/29 08:18:05;;;;;;;;;;;8.60;99.90;;;;;;5032376;28;20016;-75
2022/01/29 08:20:39;;;;;;;;;;;8.60;99.90;;;;;;5036049;28;19959;-75
2022/01/29 08:23:10;;;;;;;;;;;8.60;99.90;;;;;;5036263;28;19921;-75
2022/01/29 08:25:39;;;;;;;;;;;8.70;99.90;;;;;;5036433;28;19971;-75
2022/01/29 08:28:05;;;;;;;;;;;8.70;99.90;;;;;;5036374;28;19932;-75
2022/01/29 08:30:31;;;;;;;;;;;8.70;99.90;;;;;;5035397;28;19932;-75
2022/01/29 08:32:58;;;;;;;;;;;8.70;99.90;;;;;;5035684;28;19921;-75
2022/01/29 08:35:24;;;;;;;;;;;8.80;99.90;;;;;;5035969;28;19921;-75
2022/01/29 08:37:54;;;;;;;;;;;8.70;99.90;;;;;;5052953;28;19924;-75
2022/01/29 08:40:22;;;;;;;;;;;8.80;99.90;;;;;;5036221;28;19974;-75
2022/01/29 08:42:48;;;;;;;;;;;8.80;99.90;;;;;;5035778;28;19925;-75
2022/01/29 08:45:14;;;;;;;;;;;8.80;99.90;;;;;;5052428;28;20456;-75
2022/01/29 08:47:42;;;;;;;;;;;8.80;99.90;;;;;;5052618;28;19920;-76
2022/01/29 08:50:09;;;;;;;;;;;8.80;99.90;;;;;;5051777;28;19925;-75
2022/01/29 08:52:41;;;;;;;;;;;8.80;99.90;;;;;;5025280;28;19921;-75
2022/01/29 08:55:08;;;;;;;;;;;8.80;99.90;;;;;;5015695;28;19921;-75
2022/01/29 08:57:34;;;;;;;;;;;8.80;99.90;;;;;;5035322;28;19928;-75
2022/01/29 09:00:07;;;;;;;;;;;8.80;99.90;;;;;;5051744;28;20180;-76
2022/01/29 09:02:32;;;;;;;;;;;8.90;99.90;;;;;;5051472;28;19929;-75
2022/01/29 09:04:58;;;;;;;;;;;8.80;99.90;;;;;;5034661;28;20401;-75
2022/01/29 09:07:28;;;;;;;;;;;8.80;99.90;;;;;;5034677;28;19927;-75
2022/01/29 09:09:56;;;;;;;;;;;8.80;99.90;;;;;;5050711;28;19937;-76
2022/01/29 09:12:21;;;;;;;;;;;8.90;99.90;;;;;;5051715;28;20379;-71
2022/01/29 09:14:47;;;;;;;;;;;8.90;99.90;;;;;;5052778;28;20012;-71
2022/01/29 09:17:13;;;;;;;;;;;8.90;99.90;;;;;;5032628;28;20019;-72
2022/01/29 09:19:38;;;;;;;;;;;8.90;99.90;;;;;;5043827;28;19920;-73
2022/01/29 09:22:04;;;;;;;;;;;8.90;99.90;;;;;;5051032;28;19967;-74
2022/01/29 09:24:29;;;;;;;;;;;9.00;99.90;;;;;;5048735;28;19925;-73
2022/01/29 09:26:55;;;;;;;;;;;9.00;99.90;;;;;;5033807;28;19935;-74
2022/01/29 09:29:20;;;;;;;;;;;9.00;99.90;;;;;;5051795;28;20282;-74
2022/01/29 09:31:46;;;;;;;;;;;9.00;99.90;;;;;;5034505;28;19921;-74
2022/01/29 09:34:11;;;;;;;;;;;9.00;99.90;;;;;;5051722;28;19921;-74
2022/01/29 09:36:37;;;;;;;;;;;9.00;99.90;;;;;;5051284;28;19985;-74
2022/01/29 09:39:02;;;;;;;;;;;9.10;99.90;;;;;;5051290;28;19921;-74
2022/01/29 09:41:28;;;;;;;;;;;9.10;99.90;;;;;;5034470;28;20290;-73
2022/01/29 09:43:55;;;;;;;;;;;9.10;99.90;;;;;;5050674;28;20379;-74
2022/01/29 09:46:20;;;;;;;;;;;9.10;99.90;;;;;;5034623;28;19921;-74
2022/01/29 09:48:46;;;;;;;;;;;9.20;99.90;;;;;;5034561;28;19971;-74
2022/01/29 09:51:14;;;;;;;;;;;9.30;99.90;;;;;;5034300;28;19929;-74
2022/01/29 09:53:40;;;;;;;;;;;9.30;99.90;;;;;;5034868;28;20406;-73
2022/01/29 09:56:06;;;;;;;;;;;9.30;99.90;;;;;;5051195;28;19998;-74
2022/01/29 09:58:31;;;;;;;;;;;9.40;99.90;;;;;;5034431;28;19986;-74
2022/01/29 10:00:57;;;;;;;;;;;9.40;99.90;;;;;;5034290;28;19920;-73
2022/01/29 10:03:23;;;;;;;;;;;9.40;99.90;;;;;;5051094;28;19928;-73
2022/01/29 10:05:53;;;;;;;;;;;9.40;99.90;;;;;;5050690;28;19920;-73
2022/01/29 10:08:19;;;;;;;;;;;9.40;99.90;;;;;;5051403;28;19921;-73
2022/01/29 10:10:47;;;;;;;;;;;9.40;99.90;;;;;;5033651;28;20379;-73
2022/01/29 10:13:22;;;;;;;;;;;9.40;99.90;;;;;;5050889;28;20342;-74
2022/01/29 10:15:48;;;;;;;;;;;9.40;99.90;;;;;;5034469;28;20289;-74
2022/01/29 10:18:22;;;;;;;;;;;9.40;99.90;;;;;;5050742;28;20008;-74
2022/01/29 10:20:48;;;;;;;;;;;9.40;99.90;;;;;;5051704;28;20024;-74
2022/01/29 10:23:13;;;;;;;;;;;9.40;99.90;;;;;;5050584;28;19968;-74
2022/01/29 10:25:43;;;;;;;;;;;9.40;99.90;;;;;;5052022;28;19952;-74
2022/01/29 10:28:09;;;;;;;;;;;9.50;99.90;;;;;;5050895;28;20326;-74
2022/01/29 10:30:36;;;;;;;;;;;9.40;99.90;;;;;;5050424;28;19924;-74
2022/01/29 10:33:21;;;;;;;;;;;9.50;99.90;;;;;;5052381;28;19982;-73
2022/01/29 10:35:48;;;;;;;;;;;9.50;99.90;;;;;;5033945;28;20379;-74
2022/01/29 10:38:13;;;;;;;;;;;9.50;99.90;;;;;;5050327;28;19921;-73
2022/01/29 10:40:39;;;;;;;;;;;9.50;99.90;;;;;;5033818;28;19921;-73
2022/01/29 10:43:05;;;;;;;;;;;9.60;99.90;;;;;;5033693;28;19947;-73
2022/01/29 10:45:32;;;;;;;;;;;9.60;99.90;;;;;;5033770;28;19921;-73
2022/01/29 10:47:58;;;;;;;;;;;9.70;99.90;;;;;;5033846;28;19928;-73
2022/01/29 10:50:23;;;;;;;;;;;9.70;99.90;;;;;;5033716;28;20387;-74
2022/01/29 10:52:49;;;;;;;;;;;9.80;99.90;;;;;;5033554;28;19927;-74
2022/01/29 10:55:15;;;;;;;;;;;9.90;99.90;;;;;;5052536;28;20008;-74
2022/01/29 10:57:41;;;;;;;;;;;10.00;99.90;;;;;;5054642;28;19979;-74
2022/01/29 11:00:17;;;;;;;;;;;10.10;99.90;;;;;;5037490;28;20066;-74
2022/01/29 11:02:44;;;;;;;;;;;10.20;99.90;;;;;;5037767;28;20014;-74
2022/01/29 11:05:09;;;;;;;;;;;10.20;99.90;;;;;;5054879;28;19928;-74
2022/01/29 11:07:35;;;;;;;;;;;10.30;99.90;;;;;;5054538;28;19925;-74
2022/01/29 11:10:02;;;;;;;;;;;10.30;99.90;;;;;;5054048;28;20039;-74
2022/01/29 11:12:30;;;;;;;;;;;10.20;99.90;;;;;;5054206;28;19936;-74
2022/01/29 11:15:02;;;;;;;;;;;10.20;99.90;;;;;;5037383;28;19927;-74
2022/01/29 11:17:29;;;;;;;;;;;10.30;99.90;;;;;;5054635;28;20271;-73
2022/01/29 11:19:54;;;;;;;;;;;10.30;99.90;;;;;;5037813;28;19943;-74
2022/01/29 11:22:24;;;;;;;;;;;10.30;99.90;;;;;;5037616;28;19920;-73
2022/01/29 11:24:56;;;;;;;;;;;10.30;99.90;;;;;;5037235;28;19943;-74
2022/01/29 11:27:23;;;;;;;;;;;10.30;99.90;;;;;;5054154;28;19990;-74
2022/01/29 11:30:15;;;;;;;;;;;10.30;99.90;;;;;;5054143;28;19924;-74
2022/01/29 11:32:45;;;;;;;;;;;10.30;99.90;;;;;;5050857;28;19971;-74
2022/01/29 11:35:16;;;;;;;;;;;10.30;99.90;;;;;;5053739;28;19931;-74
2022/01/29 11:37:49;;;;;;;;;;;10.40;99.90;;;;;;5054079;28;19996;-73
2022/01/29 11:40:19;;;;;;;;;;;10.40;99.90;;;;;;5037053;28;19925;-74
2022/01/29 11:42:52;;;;;;;;;;;10.40;99.90;;;;;;5037029;28;20082;-74
2022/01/29 11:45:36;;;;;;;;;;;10.50;99.90;;;;;;5038952;28;20019;-74
2022/01/29 11:48:02;;;;;;;;;;;10.40;99.90;;;;;;5038413;28;19928;-74
2022/01/29 11:50:27;;;;;;;;;;;10.40;99.90;;;;;;5034960;28;20295;-75
2022/01/29 11:52:54;;;;;;;;;;;10.30;99.90;;;;;;5038217;28;19928;-73
2022/01/29 11:55:36;;;;;;;;;;;10.40;99.90;;;;;;5036927;28;19921;-73
2022/01/29 11:58:17;;;;;;;;;;;10.40;99.90;;;;;;5036739;28;19967;-72
2022/01/29 12:00:52;;;;;;;;;;;10.40;99.90;;;;;;5052368;28;19929;-73
2022/01/29 12:03:34;;;;;;;;;;;10.50;99.90;;;;;;5068608;28;20011;-73
2022/01/29 12:06:05;;;;;;;;;;;10.50;99.90;;;;;;5035985;28;19920;-72
2022/01/29 12:08:37;;;;;;;;;;;10.60;99.90;;;;;;5052845;28;20409;-73
2022/01/29 12:11:09;;;;;;;;;;;10.70;99.90;;;;;;5052717;28;19925;-72
2022/01/29 12:13:35;;;;;;;;;;;10.70;99.90;;;;;;5052830;28;20325;-73
2022/01/29 12:16:00;;;;;;;;;;;10.70;99.90;;;;;;5052487;28;19921;-72
2022/01/29 12:18:27;;;;;;;;;;;10.70;99.90;;;;;;5052654;28;19960;-73
2022/01/29 12:20:53;;;;;;;;;;;10.60;99.90;;;;;;5052588;28;20016;-72
2022/01/29 12:23:18;;;;;;;;;;;10.60;99.90;;;;;;5052516;28;19993;-72
2022/01/29 12:25:50;;;;;;;;;;;10.50;99.90;;;;;;5069492;28;20345;-72
2022/01/29 12:28:16;;;;;;;;;;;10.40;99.90;;;;;;5052772;28;19921;-72
2022/01/29 12:30:43;;;;;;;;;;;10.50;99.90;;;;;;5052332;28;19931;-73
2022/01/29 12:33:12;;;;;;;;;;;10.40;99.90;;;;;;5052357;28;20391;-73
2022/01/29 12:35:58;;;;;;;;;;;10.50;99.90;;;;;;5052513;28;19947;-72
2022/01/29 12:38:29;;;;;;;;;;;10.50;99.90;;;;;;5033523;28;21299;-73
2022/01/29 12:40:56;;;;;;;;;;;10.50;99.90;;;;;;5032750;28;19987;-72
2022/01/29 12:43:23;;;;;;;;;;;10.50;99.90;;;;;;5051577;28;20414;-72
2022/01/29 12:45:50;;;;;;;;;;;10.50;99.90;;;;;;5052145;28;19975;-72
2022/01/29 12:48:16;;;;;;;;;;;10.50;99.90;;;;;;5035717;28;19924;-71
2022/01/29 12:50:43;;;;;;;;;;;10.70;99.90;;;;;;5046834;28;19982;-72
2022/01/29 12:53:19;;;;;;;;;;;10.80;99.90;;;;;;5051436;28;19921;-72
2022/01/29 12:55:57;;;;;;;;;;;10.70;99.90;;;;;;5035880;28;19921;-73
2022/01/29 12:58:27;;;;;;;;;;;10.60;99.90;;;;;;5051969;28;19920;-72
2022/01/29 13:01:00;;;;;;;;;;;10.70;99.90;;;;;;5050785;28;19927;-73
2022/01/29 13:03:27;;;;;;;;;;;10.60;99.90;;;;;;5052257;28;20390;-72
2022/01/29 13:05:53;;;;;;;;;;;10.60;99.90;;;;;;5052079;28;19920;-72
2022/01/29 13:08:24;;;;;;;;;;;10.60;99.90;;;;;;5051536;28;19921;-73
2022/01/29 13:10:50;;;;;;;;;;;10.50;99.90;;;;;;5051503;28;19925;-75
2022/01/29 13:13:25;;;;;;;;;;;10.50;99.90;;;;;;5042786;28;20015;-72
2022/01/29 13:15:51;;;;;;;;;;;10.50;99.90;;;;;;5033781;28;19928;-72
2022/01/29 13:18:16;;;;;;;;;;;10.50;99.90;;;;;;5051394;28;20019;-73
2022/01/29 13:20:42;;;;;;;;;;;10.40;99.90;;;;;;5052080;28;19920;-73
2022/01/29 13:23:07;;;;;;;;;;;10.30;99.90;;;;;;5035151;28;19921;-72
2022/01/29 13:25:36;;;;;;;;;;;10.30;99.90;;;;;;5051551;28;19921;-72
2022/01/29 13:28:16;;;;;;;;;;;10.30;99.90;;;;;;5051196;28;19921;-72
2022/01/29 13:30:42;;;;;;;;;;;10.30;99.90;;;;;;5051473;28;19925;-72
2022/01/29 13:33:09;;;;;;;;;;;10.30;99.90;;;;;;5050562;28;19921;-72
2022/01/29 13:35:41;;;;;;;;;;;10.20;99.90;;;;;;5049995;28;19921;-73
2022/01/29 13:38:09;;;;;;;;;;;10.20;99.90;;;;;;5051102;28;20375;-72
2022/01/29 13:40:36;;;;;;;;;;;10.20;99.90;;;;;;5051240;28;19974;-74
2022/01/29 13:43:04;;;;;;;;;;;10.20;99.90;;;;;;5050405;28;20311;-72
2022/01/29 13:45:31;;;;;;;;;;;10.20;99.90;;;;;;5033897;28;19921;-73
2022/01/29 13:48:10;;;;;;;;;;;10.20;99.90;;;;;;5051328;28;20330;-73
2022/01/29 13:50:36;;;;;;;;;;;10.30;99.90;;;;;;5031333;28;19928;-73
2022/01/29 13:53:08;;;;;;;;;;;10.30;99.90;;;;;;5031243;28;19928;-73
2022/01/29 13:55:35;;;;;;;;;;;10.30;99.90;;;;;;5048379;28;19921;-75
2022/01/29 13:58:05;;;;;;;;;;;10.30;99.90;;;;;;5050831;28;20379;-72
2022/01/29 14:00:57;;;;;;;;;;;10.30;99.90;;;;;;5050983;28;19927;-72
2022/01/29 14:03:42;;;;;;;;;;;10.30;99.90;;;;;;5050682;28;19921;-72
2022/01/29 14:06:29;;;;;;;;;;;10.30;99.90;;;;;;5050983;28;19935;-74
2022/01/29 14:09:06;;;;;;;;;;;10.40;99.90;;;;;;5050794;28;19921;-73
2022/01/29 14:11:54;;;;;;;;;;;10.30;99.90;;;;;;5050679;28;20334;-72
2022/01/29 14:14:20;;;;;;;;;;;10.40;99.90;;;;;;5050621;28;19921;-73
2022/01/29 14:16:46;;;;;;;;;;;10.30;99.90;;;;;;5034565;28;20271;-73
2022/01/29 14:19:12;;;;;;;;;;;10.30;99.90;;;;;;5050409;28;20003;-72
2022/01/29 14:21:38;;;;;;;;;;;10.30;99.90;;;;;;5050358;28;20028;-75
2022/01/29 14:24:03;;;;;;;;;;;10.40;99.90;;;;;;5050517;28;19979;-73
2022/01/29 14:26:32;;;;;;;;;;;10.40;99.90;;;;;;5042024;28;19925;-73
2022/01/29 14:28:57;;;;;;;;;;;10.30;99.90;;;;;;5030001;28;20294;-72
2022/01/29 14:31:23;;;;;;;;;;;10.40;99.90;;;;;;5031320;28;19925;-74
2022/01/29 14:33:48;;;;;;;;;;;10.40;99.90;;;;;;5033506;28;20303;-74
2022/01/29 14:36:19;;;;;;;;;;;10.50;99.90;;;;;;5050389;28;20015;-76
2022/01/29 14:38:45;;;;;;;;;;;10.60;99.90;;;;;;5036423;28;19931;-73
2022/01/29 14:41:10;;;;;;;;;;;10.60;99.90;;;;;;5022594;28;20372;-73